KSAA/SAA METAR and TAF weather

Enter ICAO airport designator
Station Type Date Time Source
KSAA METAR 2022/12/05 14:35 UTC NOAA

KSAA 051435Z AUTO 23014G17KT 10SM SCT050 BKN065 OVC100 M01/M01 A2990 RMK AO2


Station Type Date Time Source
KSAA Decoded METAR 2022/12/05 14:35 UTC NOAA

Station name not available
Dec 05, 2022 - 09:35 AM EST / 2022.12.05 1435 UTC
Wind: from the SW (230 degrees) at 16 MPH (14 KT) gusting to 20 MPH (17 KT):0
Visibility: 10 mile(s):0
Sky conditions: overcast
Temperature: 30 F (-1 C)
Windchill: 19 F (-7 C):1
Dew Point: 30 F (-1 C)
Relative Humidity: 100%
Pressure (altimeter): 29.9 in. Hg (1012 hPa)
ob: KSAA 051435Z AUTO 23014G17KT 10SM SCT050 BKN065 OVC100 M01/M01 A2990 RMK AO2
cycle: 14

Station Type Date Time Source
KSAA TAF UTC NOAA

Error!

Example: see airport list